sensor_id;sensor_type;location;lat;lon;timestamp;temperature;humidity
48994;DHT22;34804;49.214;12.276;2022-08-01T00:00:07;17.90;74.30
48994;DHT22;34804;49.214;12.276;2022-08-01T00:02:39;17.90;74.80
48994;DHT22;34804;49.214;12.276;2022-08-01T00:05:07;17.90;75.30
48994;DHT22;34804;49.214;12.276;2022-08-01T00:07:35;17.70;75.40
48994;DHT22;34804;49.214;12.276;2022-08-01T00:10:07;17.80;75.90
48994;DHT22;34804;49.214;12.276;2022-08-01T00:12:34;17.80;75.90
48994;DHT22;34804;49.214;12.276;2022-08-01T00:15:02;17.70;75.10
48994;DHT22;34804;49.214;12.276;2022-08-01T00:17:30;17.60;75.70
48994;DHT22;34804;49.214;12.276;2022-08-01T00:19:57;17.70;76.60
48994;DHT22;34804;49.214;12.276;2022-08-01T00:22:24;17.50;75.30
48994;DHT22;34804;49.214;12.276;2022-08-01T00:24:51;17.40;76.10
48994;DHT22;34804;49.214;12.276;2022-08-01T00:27:18;17.20;76.90
48994;DHT22;34804;49.214;12.276;2022-08-01T00:29:45;17.00;77.90
48994;DHT22;34804;49.214;12.276;2022-08-01T00:32:32;16.90;78.20
48994;DHT22;34804;49.214;12.276;2022-08-01T00:34:59;16.90;77.90
48994;DHT22;34804;49.214;12.276;2022-08-01T00:37:26;16.90;78.70
48994;DHT22;34804;49.214;12.276;2022-08-01T00:39:52;16.80;79.20
48994;DHT22;34804;49.214;12.276;2022-08-01T00:42:19;16.90;78.80
48994;DHT22;34804;49.214;12.276;2022-08-01T00:44:46;16.90;78.60
48994;DHT22;34804;49.214;12.276;2022-08-01T00:47:13;16.90;78.70
48994;DHT22;34804;49.214;12.276;2022-08-01T00:49:40;16.90;78.50
48994;DHT22;34804;49.214;12.276;2022-08-01T00:52:08;16.90;78.90
48994;DHT22;34804;49.214;12.276;2022-08-01T00:54:35;17.00;78.80
48994;DHT22;34804;49.214;12.276;2022-08-01T00:57:03;16.90;77.30
48994;DHT22;34804;49.214;12.276;2022-08-01T00:59:30;16.90;77.80
48994;DHT22;34804;49.214;12.276;2022-08-01T01:01:57;16.80;78.40
48994;DHT22;34804;49.214;12.276;2022-08-01T01:04:24;16.70;78.50
48994;DHT22;34804;49.214;12.276;2022-08-01T01:10:04;16.70;78.40
48994;DHT22;34804;49.214;12.276;2022-08-01T01:12:42;16.60;79.20
48994;DHT22;34804;49.214;12.276;2022-08-01T01:15:17;16.60;79.20
48994;DHT22;34804;49.214;12.276;2022-08-01T01:18:09;16.70;79.10
48994;DHT22;34804;49.214;12.276;2022-08-01T01:20:39;16.70;79.60
48994;DHT22;34804;49.214;12.276;2022-08-01T01:23:31;16.80;79.70
48994;DHT22;34804;49.214;12.276;2022-08-01T01:26:20;16.80;80.50
48994;DHT22;34804;49.214;12.276;2022-08-01T01:29:17;16.90;80.20
48994;DHT22;34804;49.214;12.276;2022-08-01T01:32:06;16.80;80.30
48994;DHT22;34804;49.214;12.276;2022-08-01T01:34:40;16.80;80.40
48994;DHT22;34804;49.214;12.276;2022-08-01T01:37:16;16.60;80.20
48994;DHT22;34804;49.214;12.276;2022-08-01T01:39:44;16.30;80.30
48994;DHT22;34804;49.214;12.276;2022-08-01T01:42:20;16.30;79.80
48994;DHT22;34804;49.214;12.276;2022-08-01T01:44:50;16.30;80.10
48994;DHT22;34804;49.214;12.276;2022-08-01T01:47:17;16.30;80.30
48994;DHT22;34804;49.214;12.276;2022-08-01T01:49:46;16.20;80.10
48994;DHT22;34804;49.214;12.276;2022-08-01T01:52:16;16.20;80.50
48994;DHT22;34804;49.214;12.276;2022-08-01T01:54:47;16.30;81.10
48994;DHT22;34804;49.214;12.276;2022-08-01T01:57:16;16.30;81.00
48994;DHT22;34804;49.214;12.276;2022-08-01T01:59:46;16.30;81.10
48994;DHT22;34804;49.214;12.276;2022-08-01T02:02:14;16.30;81.40
48994;DHT22;34804;49.214;12.276;2022-08-01T02:04:45;16.20;80.90
48994;DHT22;34804;49.214;12.276;2022-08-01T02:07:19;16.20;80.40
48994;DHT22;34804;49.214;12.276;2022-08-01T02:09:47;16.20;80.90
48994;DHT22;34804;49.214;12.276;2022-08-01T02:12:16;16.30;80.80
48994;DHT22;34804;49.214;12.276;2022-08-01T02:14:45;16.20;81.10
48994;DHT22;34804;49.214;12.276;2022-08-01T02:17:17;16.10;81.40
48994;DHT22;34804;49.214;12.276;2022-08-01T02:19:45;15.90;80.70
48994;DHT22;34804;49.214;12.276;2022-08-01T02:22:25;15.80;81.20
48994;DHT22;34804;49.214;12.276;2022-08-01T02:25:15;15.80;80.90
48994;DHT22;34804;49.214;12.276;2022-08-01T02:28:09;15.70;81.80
48994;DHT22;34804;49.214;12.276;2022-08-01T02:30:40;15.70;82.10
48994;DHT22;34804;49.214;12.276;2022-08-01T02:33:16;15.70;82.50
48994;DHT22;34804;49.214;12.276;2022-08-01T02:35:54;15.70;82.70
48994;DHT22;34804;49.214;12.276;2022-08-01T02:38:44;15.60;83.10
48994;DHT22;34804;49.214;12.276;2022-08-01T02:41:18;15.60;83.20
48994;DHT22;34804;49.214;12.276;2022-08-01T02:43:49;15.70;83.40
48994;DHT22;34804;49.214;12.276;2022-08-01T02:46:25;15.80;83.80
48994;DHT22;34804;49.214;12.276;2022-08-01T02:48:55;15.80;83.60
48994;DHT22;34804;49.214;12.276;2022-08-01T02:51:24;15.90;83.90
48994;DHT22;34804;49.214;12.276;2022-08-01T02:53:53;16.00;83.40
48994;DHT22;34804;49.214;12.276;2022-08-01T02:56:22;16.00;83.30
48994;DHT22;34804;49.214;12.276;2022-08-01T02:58:51;16.00;83.10
48994;DHT22;34804;49.214;12.276;2022-08-01T03:01:19;16.00;83.00
48994;DHT22;34804;49.214;12.276;2022-08-01T03:03:47;15.90;83.60
48994;DHT22;34804;49.214;12.276;2022-08-01T03:06:15;15.90;83.10
48994;DHT22;34804;49.214;12.276;2022-08-01T03:08:44;16.00;83.00
48994;DHT22;34804;49.214;12.276;2022-08-01T03:11:12;16.00;83.20
48994;DHT22;34804;49.214;12.276;2022-08-01T03:13:41;16.10;83.00
48994;DHT22;34804;49.214;12.276;2022-08-01T03:16:09;16.00;82.40
48994;DHT22;34804;49.214;12.276;2022-08-01T03:18:38;15.90;82.60
48994;DHT22;34804;49.214;12.276;2022-08-01T03:21:07;15.90;82.80
48994;DHT22;34804;49.214;12.276;2022-08-01T03:23:36;15.90;83.10
48994;DHT22;34804;49.214;12.276;2022-08-01T03:26:05;16.00;83.00
48994;DHT22;34804;49.214;12.276;2022-08-01T03:28:32;15.90;82.90
48994;DHT22;34804;49.214;12.276;2022-08-01T03:31:01;15.90;82.60
48994;DHT22;34804;49.214;12.276;2022-08-01T03:33:29;16.00;83.00
48994;DHT22;34804;49.214;12.276;2022-08-01T03:35:55;16.00;83.40
48994;DHT22;34804;49.214;12.276;2022-08-01T03:38:25;16.00;83.60
48994;DHT22;34804;49.214;12.276;2022-08-01T03:40:56;16.00;83.90
48994;DHT22;34804;49.214;12.276;2022-08-01T03:43:32;16.00;84.00
48994;DHT22;34804;49.214;12.276;2022-08-01T03:46:07;16.10;83.70
48994;DHT22;34804;49.214;12.276;2022-08-01T03:48:42;16.10;83.30
48994;DHT22;34804;49.214;12.276;2022-08-01T03:51:10;16.10;83.50
48994;DHT22;34804;49.214;12.276;2022-08-01T03:53:39;16.10;83.90
48994;DHT22;34804;49.214;12.276;2022-08-01T03:56:08;16.10;84.10
48994;DHT22;34804;49.214;12.276;2022-08-01T03:58:39;16.20;83.80
48994;DHT22;34804;49.214;12.276;2022-08-01T04:01:06;16.10;83.90
48994;DHT22;34804;49.214;12.276;2022-08-01T04:03:42;16.20;83.60
48994;DHT22;34804;49.214;12.276;2022-08-01T04:06:09;16.20;83.90
48994;DHT22;34804;49.214;12.276;2022-08-01T04:08:38;16.20;83.60
48994;DHT22;34804;49.214;12.276;2022-08-01T04:11:05;16.30;83.40
48994;DHT22;34804;49.214;12.276;2022-08-01T04:13:31;16.30;83.50
48994;DHT22;34804;49.214;12.276;2022-08-01T04:16:04;16.40;83.60
48994;DHT22;34804;49.214;12.276;2022-08-01T04:18:31;16.50;83.70
48994;DHT22;34804;49.214;12.276;2022-08-01T04:20:59;16.60;83.40
48994;DHT22;34804;49.214;12.276;2022-08-01T04:23:27;16.60;82.90
48994;DHT22;34804;49.214;12.276;2022-08-01T04:25:59;16.70;83.30
48994;DHT22;34804;49.214;12.276;2022-08-01T04:28:27;16.80;83.10
48994;DHT22;34804;49.214;12.276;2022-08-01T04:30:55;16.90;82.70
48994;DHT22;34804;49.214;12.276;2022-08-01T04:33:29;16.90;82.30
48994;DHT22;34804;49.214;12.276;2022-08-01T04:35:59;17.00;82.00
48994;DHT22;34804;49.214;12.276;2022-08-01T04:38:33;17.10;81.90
48994;DHT22;34804;49.214;12.276;2022-08-01T04:41:03;17.10;81.20
48994;DHT22;34804;49.214;12.276;2022-08-01T04:43:36;17.30;81.20
48994;DHT22;34804;49.214;12.276;2022-08-01T04:46:05;17.40;80.60
48994;DHT22;34804;49.214;12.276;2022-08-01T04:48:32;17.40;80.50
48994;DHT22;34804;49.214;12.276;2022-08-01T04:51:00;17.50;80.20
48994;DHT22;34804;49.214;12.276;2022-08-01T04:53:27;17.60;80.30
48994;DHT22;34804;49.214;12.276;2022-08-01T04:55:54;17.60;80.00
48994;DHT22;34804;49.214;12.276;2022-08-01T04:58:22;17.80;80.10
48994;DHT22;34804;49.214;12.276;2022-08-01T05:00:49;17.80;79.80
48994;DHT22;34804;49.214;12.276;2022-08-01T05:03:16;17.90;80.20
48994;DHT22;34804;49.214;12.276;2022-08-01T05:05:42;18.00;79.80
48994;DHT22;34804;49.214;12.276;2022-08-01T05:08:09;18.10;79.40
48994;DHT22;34804;49.214;12.276;2022-08-01T05:10:36;18.10;79.00
48994;DHT22;34804;49.214;12.276;2022-08-01T05:13:03;18.20;78.80
48994;DHT22;34804;49.214;12.276;2022-08-01T05:15:30;18.30;78.50
48994;DHT22;34804;49.214;12.276;2022-08-01T05:17:57;18.30;78.30
48994;DHT22;34804;49.214;12.276;2022-08-01T05:20:24;18.40;77.10
48994;DHT22;34804;49.214;12.276;2022-08-01T05:22:51;18.60;77.10
48994;DHT22;34804;49.214;12.276;2022-08-01T05:25:18;18.80;76.70
48994;DHT22;34804;49.214;12.276;2022-08-01T05:28:05;19.00;76.50
48994;DHT22;34804;49.214;12.276;2022-08-01T05:30:31;19.20;75.20
48994;DHT22;34804;49.214;12.276;2022-08-01T05:32:58;19.30;74.90
48994;DHT22;34804;49.214;12.276;2022-08-01T05:35:25;19.60;73.20
48994;DHT22;34804;49.214;12.276;2022-08-01T05:38:12;19.70;73.20
48994;DHT22;34804;49.214;12.276;2022-08-01T05:40:40;19.90;71.00
48994;DHT22;34804;49.214;12.276;2022-08-01T05:43:07;20.00;69.60
48994;DHT22;34804;49.214;12.276;2022-08-01T05:45:34;20.20;67.90
48994;DHT22;34804;49.214;12.276;2022-08-01T05:48:01;20.30;68.20
48994;DHT22;34804;49.214;12.276;2022-08-01T05:50:28;20.40;68.20
48994;DHT22;34804;49.214;12.276;2022-08-01T05:52:55;20.60;67.80
48994;DHT22;34804;49.214;12.276;2022-08-01T05:55:21;20.80;66.20
48994;DHT22;34804;49.214;12.276;2022-08-01T05:57:48;21.00;65.10
48994;DHT22;34804;49.214;12.276;2022-08-01T06:00:15;21.20;64.80
48994;DHT22;34804;49.214;12.276;2022-08-01T06:02:42;21.40;64.20
48994;DHT22;34804;49.214;12.276;2022-08-01T06:05:10;21.60;63.50
48994;DHT22;34804;49.214;12.276;2022-08-01T06:07:39;21.70;63.70
48994;DHT22;34804;49.214;12.276;2022-08-01T06:10:07;21.70;63.50
48994;DHT22;34804;49.214;12.276;2022-08-01T06:12:34;21.70;63.80
48994;DHT22;34804;49.214;12.276;2022-08-01T06:15:03;21.60;64.10
48994;DHT22;34804;49.214;12.276;2022-08-01T06:17:30;21.60;64.60
48994;DHT22;34804;49.214;12.276;2022-08-01T06:19:57;21.80;63.80
48994;DHT22;34804;49.214;12.276;2022-08-01T06:22:23;21.80;63.80
48994;DHT22;34804;49.214;12.276;2022-08-01T06:24:51;21.90;64.00
48994;DHT22;34804;49.214;12.276;2022-08-01T06:27:19;21.80;63.90
48994;DHT22;34804;49.214;12.276;2022-08-01T06:29:48;21.80;64.10
48994;DHT22;34804;49.214;12.276;2022-08-01T06:32:22;21.90;64.20
48994;DHT22;34804;49.214;12.276;2022-08-01T06:34:53;21.80;64.10
48994;DHT22;34804;49.214;12.276;2022-08-01T06:37:21;21.80;64.50
48994;DHT22;34804;49.214;12.276;2022-08-01T06:39:48;21.80;64.70
48994;DHT22;34804;49.214;12.276;2022-08-01T06:42:16;21.80;64.70
48994;DHT22;34804;49.214;12.276;2022-08-01T06:44:43;21.80;64.60
48994;DHT22;34804;49.214;12.276;2022-08-01T06:47:10;21.90;64.70
48994;DHT22;34804;49.214;12.276;2022-08-01T06:49:36;22.00;64.70
48994;DHT22;34804;49.214;12.276;2022-08-01T06:52:04;22.20;64.00
48994;DHT22;34804;49.214;12.276;2022-08-01T06:54:31;22.30;63.80
48994;DHT22;34804;49.214;12.276;2022-08-01T06:56:58;22.20;63.50
48994;DHT22;34804;49.214;12.276;2022-08-01T06:59:24;22.20;63.70
48994;DHT22;34804;49.214;12.276;2022-08-01T07:01:52;22.30;63.90
48994;DHT22;34804;49.214;12.276;2022-08-01T07:04:19;22.40;63.20
48994;DHT22;34804;49.214;12.276;2022-08-01T07:06:46;22.60;63.30
48994;DHT22;34804;49.214;12.276;2022-08-01T07:09:12;22.70;62.00
48994;DHT22;34804;49.214;12.276;2022-08-01T07:11:40;22.70;62.40
48994;DHT22;34804;49.214;12.276;2022-08-01T07:14:07;22.70;62.50
48994;DHT22;34804;49.214;12.276;2022-08-01T07:16:34;22.80;62.10
48994;DHT22;34804;49.214;12.276;2022-08-01T07:19:01;23.00;61.60
48994;DHT22;34804;49.214;12.276;2022-08-01T07:21:29;23.20;61.00
48994;DHT22;34804;49.214;12.276;2022-08-01T07:24:09;23.40;60.30
48994;DHT22;34804;49.214;12.276;2022-08-01T07:26:45;23.80;59.70
48994;DHT22;34804;49.214;12.276;2022-08-01T07:29:29;23.90;58.10
48994;DHT22;34804;49.214;12.276;2022-08-01T07:31:57;24.10;58.20
48994;DHT22;34804;49.214;12.276;2022-08-01T07:34:24;24.00;57.40
48994;DHT22;34804;49.214;12.276;2022-08-01T07:36:51;24.00;57.60
48994;DHT22;34804;49.214;12.276;2022-08-01T07:39:19;23.80;57.70
48994;DHT22;34804;49.214;12.276;2022-08-01T07:41:45;23.80;58.70
48994;DHT22;34804;49.214;12.276;2022-08-01T07:44:32;23.70;58.60
48994;DHT22;34804;49.214;12.276;2022-08-01T07:46:59;23.70;58.80
48994;DHT22;34804;49.214;12.276;2022-08-01T07:49:26;23.60;59.00
48994;DHT22;34804;49.214;12.276;2022-08-01T07:51:53;23.80;59.90
48994;DHT22;34804;49.214;12.276;2022-08-01T07:54:31;23.90;58.80
48994;DHT22;34804;49.214;12.276;2022-08-01T07:57:00;23.90;59.10
48994;DHT22;34804;49.214;12.276;2022-08-01T07:59:27;23.80;58.50
48994;DHT22;34804;49.214;12.276;2022-08-01T08:01:54;23.80;59.10
48994;DHT22;34804;49.214;12.276;2022-08-01T08:04:21;23.90;59.00
48994;DHT22;34804;49.214;12.276;2022-08-01T08:06:48;24.10;57.30
48994;DHT22;34804;49.214;12.276;2022-08-01T08:09:15;24.30;56.60
48994;DHT22;34804;49.214;12.276;2022-08-01T08:11:44;24.70;57.30
48994;DHT22;34804;49.214;12.276;2022-08-01T08:14:17;25.00;55.30
48994;DHT22;34804;49.214;12.276;2022-08-01T08:16:45;24.80;55.30
48994;DHT22;34804;49.214;12.276;2022-08-01T08:19:12;24.80;56.60
48994;DHT22;34804;49.214;12.276;2022-08-01T08:21:39;24.80;55.00
48994;DHT22;34804;49.214;12.276;2022-08-01T08:24:07;24.60;54.40
48994;DHT22;34804;49.214;12.276;2022-08-01T08:26:57;24.90;55.20
48994;DHT22;34804;49.214;12.276;2022-08-01T08:29:25;25.30;53.30
48994;DHT22;34804;49.214;12.276;2022-08-01T08:31:53;25.50;52.30
48994;DHT22;34804;49.214;12.276;2022-08-01T08:34:23;25.40;52.90
48994;DHT22;34804;49.214;12.276;2022-08-01T08:36:50;25.00;54.00
48994;DHT22;34804;49.214;12.276;2022-08-01T08:39:17;24.90;52.70
48994;DHT22;34804;49.214;12.276;2022-08-01T08:41:46;24.80;53.70
48994;DHT22;34804;49.214;12.276;2022-08-01T08:44:16;25.10;53.00
48994;DHT22;34804;49.214;12.276;2022-08-01T08:46:48;25.40;52.80
48994;DHT22;34804;49.214;12.276;2022-08-01T08:49:21;25.50;51.30
48994;DHT22;34804;49.214;12.276;2022-08-01T08:51:49;25.80;51.60
48994;DHT22;34804;49.214;12.276;2022-08-01T08:54:21;25.60;51.70
48994;DHT22;34804;49.214;12.276;2022-08-01T08:56:58;25.50;52.00
48994;DHT22;34804;49.214;12.276;2022-08-01T08:59:26;25.40;52.40
48994;DHT22;34804;49.214;12.276;2022-08-01T09:01:54;25.50;52.60
48994;DHT22;34804;49.214;12.276;2022-08-01T09:04:23;25.50;51.10
48994;DHT22;34804;49.214;12.276;2022-08-01T09:06:53;25.50;50.80
48994;DHT22;34804;49.214;12.276;2022-08-01T09:09:20;25.40;50.10
48994;DHT22;34804;49.214;12.276;2022-08-01T09:11:47;25.40;49.30
48994;DHT22;34804;49.214;12.276;2022-08-01T09:14:24;25.60;48.90
48994;DHT22;34804;49.214;12.276;2022-08-01T09:17:04;25.80;47.70
48994;DHT22;34804;49.214;12.276;2022-08-01T09:19:36;26.30;48.50
48994;DHT22;34804;49.214;12.276;2022-08-01T09:22:12;26.40;48.30
48994;DHT22;34804;49.214;12.276;2022-08-01T09:24:40;26.40;48.90
48994;DHT22;34804;49.214;12.276;2022-08-01T09:27:20;26.40;49.30
48994;DHT22;34804;49.214;12.276;2022-08-01T09:29:52;27.10;48.20
48994;DHT22;34804;49.214;12.276;2022-08-01T09:32:31;27.50;45.80
48994;DHT22;34804;49.214;12.276;2022-08-01T09:35:26;27.50;46.10
48994;DHT22;34804;49.214;12.276;2022-08-01T09:38:20;28.10;44.80
48994;DHT22;34804;49.214;12.276;2022-08-01T09:40:58;27.70;45.20
48994;DHT22;34804;49.214;12.276;2022-08-01T09:43:29;27.20;45.70
48994;DHT22;34804;49.214;12.276;2022-08-01T09:45:57;26.50;47.70
48994;DHT22;34804;49.214;12.276;2022-08-01T09:48:25;26.60;48.70
48994;DHT22;34804;49.214;12.276;2022-08-01T09:50:57;26.40;49.10
48994;DHT22;34804;49.214;12.276;2022-08-01T09:53:48;26.70;48.90
48994;DHT22;34804;49.214;12.276;2022-08-01T09:56:20;26.80;49.40
48994;DHT22;34804;49.214;12.276;2022-08-01T09:58:53;26.80;47.30
48994;DHT22;34804;49.214;12.276;2022-08-01T10:01:27;26.60;47.30
48994;DHT22;34804;49.214;12.276;2022-08-01T10:04:05;26.80;47.60
48994;DHT22;34804;49.214;12.276;2022-08-01T10:06:36;26.80;47.30
48994;DHT22;34804;49.214;12.276;2022-08-01T10:09:03;26.90;45.80
48994;DHT22;34804;49.214;12.276;2022-08-01T10:11:31;27.20;45.80
48994;DHT22;34804;49.214;12.276;2022-08-01T10:14:02;27.00;45.40
48994;DHT22;34804;49.214;12.276;2022-08-01T10:16:30;26.70;46.80
48994;DHT22;34804;49.214;12.276;2022-08-01T10:18:59;26.50;47.50
48994;DHT22;34804;49.214;12.276;2022-08-01T10:21:27;26.20;47.20
48994;DHT22;34804;49.214;12.276;2022-08-01T10:24:14;26.00;48.10
48994;DHT22;34804;49.214;12.276;2022-08-01T10:26:48;25.90;48.80
48994;DHT22;34804;49.214;12.276;2022-08-01T10:29:15;26.70;48.40
48994;DHT22;34804;49.214;12.276;2022-08-01T10:32:05;27.80;45.80
48994;DHT22;34804;49.214;12.276;2022-08-01T10:34:34;27.70;44.80
48994;DHT22;34804;49.214;12.276;2022-08-01T10:37:01;26.90;46.20
48994;DHT22;34804;49.214;12.276;2022-08-01T10:39:32;26.40;47.40
48994;DHT22;34804;49.214;12.276;2022-08-01T10:42:00;26.10;47.90
48994;DHT22;34804;49.214;12.276;2022-08-01T10:44:30;25.90;48.20
48994;DHT22;34804;49.214;12.276;2022-08-01T10:47:10;25.80;48.60
48994;DHT22;34804;49.214;12.276;2022-08-01T10:52:19;26.10;48.10
48994;DHT22;34804;49.214;12.276;2022-08-01T10:54:47;26.20;48.10
48994;DHT22;34804;49.214;12.276;2022-08-01T10:57:18;26.10;48.10
48994;DHT22;34804;49.214;12.276;2022-08-01T10:59:53;26.20;48.00
48994;DHT22;34804;49.214;12.276;2022-08-01T11:02:28;26.30;47.30
48994;DHT22;34804;49.214;12.276;2022-08-01T11:05:02;26.30;47.80
48994;DHT22;34804;49.214;12.276;2022-08-01T11:11:00;26.40;47.40
48994;DHT22;34804;49.214;12.276;2022-08-01T11:13:00;26.50;47.00
48994;DHT22;34804;49.214;12.276;2022-08-01T11:15:30;26.40;47.40
48994;DHT22;34804;49.214;12.276;2022-08-01T11:17:59;26.80;47.30
48994;DHT22;34804;49.214;12.276;2022-08-01T11:20:31;27.30;45.40
48994;DHT22;34804;49.214;12.276;2022-08-01T11:28:24;27.30;44.90
48994;DHT22;34804;49.214;12.276;2022-08-01T11:41:40;28.60;42.00
48994;DHT22;34804;49.214;12.276;2022-08-01T11:44:19;29.20;40.60
48994;DHT22;34804;49.214;12.276;2022-08-01T11:46:54;29.70;40.00
48994;DHT22;34804;49.214;12.276;2022-08-01T11:49:33;29.30;39.50
48994;DHT22;34804;49.214;12.276;2022-08-01T11:52:28;28.80;40.90
48994;DHT22;34804;49.214;12.276;2022-08-01T11:57:31;29.30;40.30
48994;DHT22;34804;49.214;12.276;2022-08-01T12:00:14;30.20;39.80
48994;DHT22;34804;49.214;12.276;2022-08-01T12:02:45;30.30;38.90
48994;DHT22;34804;49.214;12.276;2022-08-01T12:05:14;30.40;37.60
48994;DHT22;34804;49.214;12.276;2022-08-01T12:07:43;30.40;36.30
48994;DHT22;34804;49.214;12.276;2022-08-01T12:10:14;30.20;36.90
48994;DHT22;34804;49.214;12.276;2022-08-01T12:12:52;30.30;37.20
48994;DHT22;34804;49.214;12.276;2022-08-01T12:15:22;30.20;36.00
48994;DHT22;34804;49.214;12.276;2022-08-01T12:17:56;30.00;37.60
48994;DHT22;34804;49.214;12.276;2022-08-01T12:20:31;30.10;37.20
48994;DHT22;34804;49.214;12.276;2022-08-01T12:23:00;30.10;37.80
48994;DHT22;34804;49.214;12.276;2022-08-01T12:25:27;29.80;37.90
48994;DHT22;34804;49.214;12.276;2022-08-01T12:27:55;29.50;38.30
48994;DHT22;34804;49.214;12.276;2022-08-01T12:30:25;29.80;39.90
48994;DHT22;34804;49.214;12.276;2022-08-01T12:32:53;29.80;38.40
48994;DHT22;34804;49.214;12.276;2022-08-01T12:35:25;29.50;38.80
48994;DHT22;34804;49.214;12.276;2022-08-01T12:37:54;29.30;40.00
48994;DHT22;34804;49.214;12.276;2022-08-01T12:40:25;29.40;38.90
48994;DHT22;34804;49.214;12.276;2022-08-01T12:42:55;29.30;38.20
48994;DHT22;34804;49.214;12.276;2022-08-01T12:47:53;28.70;40.30
48994;DHT22;34804;49.214;12.276;2022-08-01T12:50:26;28.60;40.30
48994;DHT22;34804;49.214;12.276;2022-08-01T12:52:54;28.80;40.90
48994;DHT22;34804;49.214;12.276;2022-08-01T12:55:23;29.10;40.20
48994;DHT22;34804;49.214;12.276;2022-08-01T12:58:11;30.10;39.60
48994;DHT22;34804;49.214;12.276;2022-08-01T13:00:43;31.80;37.10
48994;DHT22;34804;49.214;12.276;2022-08-01T13:03:16;32.70;34.00
48994;DHT22;34804;49.214;12.276;2022-08-01T13:05:55;33.30;34.30
48994;DHT22;34804;49.214;12.276;2022-08-01T13:08:33;33.20;33.10
48994;DHT22;34804;49.214;12.276;2022-08-01T13:11:09;33.60;32.70
48994;DHT22;34804;49.214;12.276;2022-08-01T13:13:41;33.00;33.50
48994;DHT22;34804;49.214;12.276;2022-08-01T13:16:09;33.50;33.10
48994;DHT22;34804;49.214;12.276;2022-08-01T13:18:48;33.90;34.10
48994;DHT22;34804;49.214;12.276;2022-08-01T13:21:20;35.70;30.30
48994;DHT22;34804;49.214;12.276;2022-08-01T13:24:06;36.80;29.40
48994;DHT22;34804;49.214;12.276;2022-08-01T13:26:49;36.50;27.90
48994;DHT22;34804;49.214;12.276;2022-08-01T13:29:21;35.40;29.50
48994;DHT22;34804;49.214;12.276;2022-08-01T13:31:49;34.30;30.40
48994;DHT22;34804;49.214;12.276;2022-08-01T13:34:16;33.70;31.70
48994;DHT22;34804;49.214;12.276;2022-08-01T13:36:43;34.40;30.10
48994;DHT22;34804;49.214;12.276;2022-08-01T13:39:15;34.30;32.10
48994;DHT22;34804;49.214;12.276;2022-08-01T13:42:01;34.90;29.50
48994;DHT22;34804;49.214;12.276;2022-08-01T13:44:28;35.60;28.70
48994;DHT22;34804;49.214;12.276;2022-08-01T13:46:55;35.70;28.50
48994;DHT22;34804;49.214;12.276;2022-08-01T13:49:22;36.50;27.60
48994;DHT22;34804;49.214;12.276;2022-08-01T13:51:49;36.40;27.00
48994;DHT22;34804;49.214;12.276;2022-08-01T13:54:17;36.50;28.00
48994;DHT22;34804;49.214;12.276;2022-08-01T13:56:44;36.60;27.50
48994;DHT22;34804;49.214;12.276;2022-08-01T13:59:12;36.90;28.00
48994;DHT22;34804;49.214;12.276;2022-08-01T14:01:39;37.10;27.40
48994;DHT22;34804;49.214;12.276;2022-08-01T14:04:06;37.30;27.70
48994;DHT22;34804;49.214;12.276;2022-08-01T14:06:33;36.30;28.20
48994;DHT22;34804;49.214;12.276;2022-08-01T14:09:03;35.50;28.40
48994;DHT22;34804;49.214;12.276;2022-08-01T14:11:43;34.20;29.90
48994;DHT22;34804;49.214;12.276;2022-08-01T14:14:12;32.40;32.80
48994;DHT22;34804;49.214;12.276;2022-08-01T14:16:40;31.50;34.20
48994;DHT22;34804;49.214;12.276;2022-08-01T14:19:07;31.00;35.30
48994;DHT22;34804;49.214;12.276;2022-08-01T14:21:34;30.70;36.00
48994;DHT22;34804;49.214;12.276;2022-08-01T14:24:01;30.30;36.60
48994;DHT22;34804;49.214;12.276;2022-08-01T14:26:28;31.00;35.70
48994;DHT22;34804;49.214;12.276;2022-08-01T14:28:54;33.10;32.60
48994;DHT22;34804;49.214;12.276;2022-08-01T14:31:21;33.60;32.00
48994;DHT22;34804;49.214;12.276;2022-08-01T14:33:48;32.80;32.30
48994;DHT22;34804;49.214;12.276;2022-08-01T14:36:15;33.30;32.00
48994;DHT22;34804;49.214;12.276;2022-08-01T14:38:56;32.80;32.30
48994;DHT22;34804;49.214;12.276;2022-08-01T14:41:27;33.80;31.30
48994;DHT22;34804;49.214;12.276;2022-08-01T14:43:56;34.80;31.10
48994;DHT22;34804;49.214;12.276;2022-08-01T14:46:23;35.30;29.40
48994;DHT22;34804;49.214;12.276;2022-08-01T14:48:50;35.30;28.90
48994;DHT22;34804;49.214;12.276;2022-08-01T14:51:17;35.10;29.70
48994;DHT22;34804;49.214;12.276;2022-08-01T14:53:44;35.30;29.80
48994;DHT22;34804;49.214;12.276;2022-08-01T14:56:16;35.00;30.50
48994;DHT22;34804;49.214;12.276;2022-08-01T14:58:44;34.90;30.60
48994;DHT22;34804;49.214;12.276;2022-08-01T15:01:10;34.90;30.20
48994;DHT22;34804;49.214;12.276;2022-08-01T15:03:37;34.80;31.40
48994;DHT22;34804;49.214;12.276;2022-08-01T15:06:04;35.30;30.30
48994;DHT22;34804;49.214;12.276;2022-08-01T15:08:33;35.00;30.00
48994;DHT22;34804;49.214;12.276;2022-08-01T15:11:00;34.40;31.50
48994;DHT22;34804;49.214;12.276;2022-08-01T15:13:28;34.60;30.90
48994;DHT22;34804;49.214;12.276;2022-08-01T15:15:55;35.10;30.80
48994;DHT22;34804;49.214;12.276;2022-08-01T15:18:29;35.30;30.40
48994;DHT22;34804;49.214;12.276;2022-08-01T15:21:00;35.30;29.70
48994;DHT22;34804;49.214;12.276;2022-08-01T15:23:27;34.40;31.10
48994;DHT22;34804;49.214;12.276;2022-08-01T15:25:53;33.40;32.80
48994;DHT22;34804;49.214;12.276;2022-08-01T15:28:20;32.70;33.50
48994;DHT22;34804;49.214;12.276;2022-08-01T15:30:47;33.00;34.10
48994;DHT22;34804;49.214;12.276;2022-08-01T15:33:14;33.60;32.30
48994;DHT22;34804;49.214;12.276;2022-08-01T15:35:41;34.30;31.60
48994;DHT22;34804;49.214;12.276;2022-08-01T15:38:09;35.20;30.00
48994;DHT22;34804;49.214;12.276;2022-08-01T15:40:35;33.90;31.10
48994;DHT22;34804;49.214;12.276;2022-08-01T15:43:02;32.80;32.70
48994;DHT22;34804;49.214;12.276;2022-08-01T15:45:29;32.40;33.10
48994;DHT22;34804;49.214;12.276;2022-08-01T15:48:13;32.00;34.00
48994;DHT22;34804;49.214;12.276;2022-08-01T15:50:40;31.80;34.60
48994;DHT22;34804;49.214;12.276;2022-08-01T15:53:07;32.80;33.80
48994;DHT22;34804;49.214;12.276;2022-08-01T15:55:35;33.80;31.70
48994;DHT22;34804;49.214;12.276;2022-08-01T15:58:04;34.60;31.10
48994;DHT22;34804;49.214;12.276;2022-08-01T16:00:32;34.90;30.20
48994;DHT22;34804;49.214;12.276;2022-08-01T16:03:07;35.30;29.80
48994;DHT22;34804;49.214;12.276;2022-08-01T16:05:34;36.00;28.90